Dexter, Oregon
Current Conditions -  °F | °C
As of 11:54 AM on Thursday 23 Oct 2014 (Local Time) from KEUG Reporting Station
Overcast Overcast  
Wind Chill: 57°   Ceiling: 4500
Heat Index: 57°   Visibility: 10mi
Dew Point: 52°   Wind: 7mph
Humidity: 83%   Direction: 210°SSW
Pressure: 29.93"   Gusts: NA
Location:  43.92°N, 122.83°W
Report Text: KEUG 231854Z 21006KT 10SM FEW025 BKN045 OVC100 14/11 A2993 RMK AO2 SLP136 T01390111
Loading
Personal Weather Stations






























Interactive Weather Map
Tropical Storm Tracking
New forecast layout! Learn more

10-Day Weather Forecast

Advertisements
Track Severe Weather on mobile